createdAt,value
2023-03-22T00:02:10.316Z,9.08
2023-03-22T00:04:36.938Z,9.03
2023-03-22T00:07:03.565Z,8.95
2023-03-22T00:09:30.870Z,8.91
2023-03-22T00:11:57.519Z,8.83
2023-03-22T00:14:24.283Z,8.88
2023-03-22T00:16:51.103Z,8.92
2023-03-22T00:19:17.742Z,8.95
2023-03-22T00:21:44.959Z,8.92
2023-03-22T00:24:11.622Z,8.91
2023-03-22T00:26:38.263Z,8.88
2023-03-22T00:29:05.650Z,8.92
2023-03-22T00:31:32.479Z,8.94
2023-03-22T00:33:59.130Z,8.97
2023-03-22T00:36:26.032Z,9.09
2023-03-22T00:38:52.698Z,9.11
2023-03-22T00:41:21.823Z,9.17
2023-03-22T00:43:50.270Z,9.18
2023-03-22T00:46:19.889Z,9.21
2023-03-22T00:48:46.938Z,9.22
2023-03-22T00:51:14.575Z,9.15
2023-03-22T00:53:43.356Z,9.19
2023-03-22T00:56:13.939Z,9.20
2023-03-22T00:58:42.132Z,9.27
2023-03-22T01:01:09.288Z,9.25
2023-03-22T01:03:36.142Z,9.20
2023-03-22T01:06:03.639Z,9.21
2023-03-22T01:08:33.439Z,9.26
2023-03-22T01:11:01.378Z,9.40
2023-03-22T01:13:29.057Z,9.27
2023-03-22T01:15:56.271Z,9.20
2023-03-22T01:18:23.018Z,9.20
2023-03-22T01:20:49.789Z,9.24
2023-03-22T01:23:16.509Z,9.22
2023-03-22T01:25:43.181Z,9.22
2023-03-22T01:28:09.889Z,9.18
2023-03-22T01:30:38.639Z,9.23
2023-03-22T01:33:07.577Z,9.21
2023-03-22T01:35:36.041Z,9.20
2023-03-22T01:38:03.184Z,9.22
2023-03-22T01:40:29.893Z,9.23
2023-03-22T01:42:56.885Z,9.24
2023-03-22T01:45:50.601Z,9.17
2023-03-22T01:48:28.114Z,9.18
2023-03-22T01:51:24.859Z,9.19
2023-03-22T01:54:04.009Z,9.28
2023-03-22T01:56:34.690Z,9.23
2023-03-22T01:59:02.191Z,9.19
2023-03-22T02:01:30.312Z,9.16
2023-03-22T02:04:20.124Z,9.17
2023-03-22T02:06:48.276Z,9.07
2023-03-22T02:09:22.048Z,8.94
2023-03-22T02:12:12.279Z,8.99
2023-03-22T02:15:15.578Z,9.00
2023-03-22T02:18:23.845Z,9.03
2023-03-22T02:21:18.653Z,9.02
2023-03-22T02:24:23.523Z,9.06
2023-03-22T02:27:22.680Z,9.07
2023-03-22T02:30:18.031Z,9.09
2023-03-22T02:33:35.833Z,9.14
2023-03-22T02:36:49.000Z,9.24
2023-03-22T03:10:41.491Z,8.98
2023-03-22T03:13:17.016Z,9.08
2023-03-22T03:15:52.682Z,9.11
2023-03-22T03:18:48.524Z,9.11
2023-03-22T03:21:42.437Z,9.16
2023-03-22T03:24:38.974Z,9.12
2023-03-22T03:27:20.162Z,9.14
2023-03-22T03:30:00.530Z,9.10
2023-03-22T03:32:35.158Z,9.13
2023-03-22T03:35:10.300Z,9.20
2023-03-22T03:37:52.599Z,9.23
2023-03-22T03:40:28.027Z,9.22
2023-03-22T03:42:57.883Z,9.25
2023-03-22T03:45:25.475Z,9.25
2023-03-22T03:47:57.284Z,9.22
2023-03-22T03:50:25.839Z,9.18
2023-03-22T03:52:54.315Z,9.19
2023-03-22T03:55:23.216Z,9.17
2023-03-22T03:57:49.937Z,9.20
2023-03-22T04:00:17.337Z,9.14
2023-03-22T04:02:44.495Z,9.07
2023-03-22T04:05:12.770Z,9.01
2023-03-22T04:07:39.678Z,8.96
2023-03-22T04:10:07.469Z,8.91
2023-03-22T04:12:34.363Z,8.92
2023-03-22T04:15:01.063Z,8.87
2023-03-22T04:17:32.075Z,8.84
2023-03-22T04:19:58.892Z,8.69
2023-03-22T04:22:26.344Z,8.13
2023-03-22T04:24:53.004Z,7.96
2023-03-22T04:27:22.217Z,7.88
2023-03-22T04:29:48.789Z,7.96
2023-03-22T04:32:16.911Z,7.93
2023-03-22T04:34:43.589Z,7.94
2023-03-22T04:37:10.263Z,8.03
2023-03-22T04:39:37.124Z,7.97
2023-03-22T04:42:03.882Z,7.95
2023-03-22T04:44:30.680Z,7.97
2023-03-22T04:46:57.564Z,7.96
2023-03-22T04:49:24.627Z,7.93
2023-03-22T04:51:51.853Z,7.99
2023-03-22T04:54:18.508Z,7.93
2023-03-22T04:56:45.275Z,7.92
2023-03-22T04:59:11.940Z,7.87
2023-03-22T05:01:40.541Z,7.85
2023-03-22T05:04:07.233Z,7.88
2023-03-22T05:06:34.282Z,7.93
2023-03-22T05:09:01.310Z,7.94
2023-03-22T05:11:28.154Z,7.82
2023-03-22T05:13:55.504Z,7.80
2023-03-22T05:16:22.493Z,7.75
2023-03-22T05:18:49.914Z,7.74
2023-03-22T05:21:21.981Z,7.64
2023-03-22T05:23:52.149Z,7.62
2023-03-22T05:26:20.545Z,7.65
2023-03-22T05:28:47.167Z,7.74
2023-03-22T05:31:15.547Z,7.85
2023-03-22T05:33:42.334Z,7.95
2023-03-22T05:36:11.244Z,8.03
2023-03-22T05:38:38.426Z,8.04
2023-03-22T05:41:05.765Z,8.02
2023-03-22T05:43:32.808Z,8.00
2023-03-22T05:45:59.688Z,7.95
2023-03-22T05:48:26.298Z,7.99
2023-03-22T05:50:52.913Z,8.03
2023-03-22T05:53:19.571Z,8.01
2023-03-22T05:55:46.199Z,7.98
2023-03-22T05:58:12.975Z,7.95
2023-03-22T06:00:40.294Z,7.82
2023-03-22T06:03:07.921Z,7.79
2023-03-22T06:05:36.612Z,7.79
2023-03-22T06:08:04.065Z,7.80
2023-03-22T06:10:30.937Z,7.83
2023-03-22T06:12:57.586Z,7.80
2023-03-22T06:15:24.341Z,7.78
2023-03-22T06:17:51.350Z,7.77
2023-03-22T06:20:18.300Z,7.68
2023-03-22T06:22:44.998Z,7.76
2023-03-22T06:25:11.849Z,7.84
2023-03-22T06:27:38.515Z,7.79
2023-03-22T06:30:06.342Z,7.93
2023-03-22T06:32:32.971Z,8.07
2023-03-22T06:35:15.634Z,8.25
2023-03-22T06:37:42.463Z,8.40
2023-03-22T06:40:09.999Z,8.48
2023-03-22T06:42:37.056Z,8.63
2023-03-22T06:45:04.656Z,8.72
2023-03-22T06:47:31.392Z,8.92
2023-03-22T06:49:58.215Z,9.07
2023-03-22T06:52:24.989Z,9.23
2023-03-22T06:54:51.597Z,9.35
2023-03-22T06:57:18.175Z,9.55
2023-03-22T06:59:44.712Z,9.78
2023-03-22T07:02:13.057Z,9.92
2023-03-22T07:04:39.661Z,10.02
2023-03-22T07:07:06.285Z,10.19
2023-03-22T07:09:32.898Z,10.18
2023-03-22T07:11:59.506Z,10.24
2023-03-22T07:14:26.226Z,10.20
2023-03-22T07:16:52.773Z,10.18
2023-03-22T07:19:19.433Z,10.24
2023-03-22T07:21:46.023Z,10.25
2023-03-22T07:24:13.840Z,10.27
2023-03-22T07:26:41.029Z,10.21
2023-03-22T07:29:07.644Z,10.37
2023-03-22T07:31:36.464Z,10.64
2023-03-22T07:34:04.040Z,10.84
2023-03-22T07:36:31.035Z,10.95
2023-03-22T07:38:58.021Z,11.07
2023-03-22T07:41:25.849Z,11.18
2023-03-22T07:43:58.249Z,11.25
2023-03-22T07:46:26.805Z,11.30
2023-03-22T07:48:53.471Z,11.34
2023-03-22T07:51:20.383Z,11.40
2023-03-22T07:53:47.098Z,11.39
2023-03-22T07:56:13.958Z,11.33
2023-03-22T07:58:40.728Z,11.32
2023-03-22T08:01:10.026Z,11.24
2023-03-22T08:03:37.666Z,11.18
2023-03-22T08:06:08.113Z,11.14
2023-03-22T08:08:36.997Z,11.01
2023-03-22T08:11:07.783Z,10.83
2023-03-22T08:13:34.536Z,10.85
2023-03-22T08:16:01.741Z,10.87
2023-03-22T08:18:28.392Z,10.83
2023-03-22T08:20:59.891Z,10.95
2023-03-22T08:23:40.524Z,11.01
2023-03-22T08:26:08.773Z,11.08
2023-03-22T08:28:35.604Z,11.08
2023-03-22T08:31:02.402Z,11.22
2023-03-22T08:33:29.107Z,11.20
2023-03-22T08:36:10.927Z,11.26
2023-03-22T08:38:37.802Z,11.36
2023-03-22T08:41:04.769Z,11.39
2023-03-22T08:43:31.406Z,11.44
2023-03-22T08:45:58.375Z,11.52
2023-03-22T08:48:25.330Z,11.62
2023-03-22T08:50:52.106Z,11.77
2023-03-22T08:53:18.726Z,11.85
2023-03-22T08:55:45.349Z,11.96
2023-03-22T08:58:16.557Z,12.09
2023-03-22T09:00:49.095Z,12.15
2023-03-22T09:03:17.077Z,12.20
2023-03-22T09:05:44.074Z,12.46
2023-03-22T09:08:18.646Z,12.53
2023-03-22T09:10:51.953Z,12.64
2023-03-22T09:13:19.980Z,12.89
2023-03-22T09:15:47.271Z,12.97
2023-03-22T09:18:14.636Z,13.12
2023-03-22T09:20:41.470Z,13.29
2023-03-22T09:23:08.237Z,13.42
2023-03-22T09:25:34.965Z,13.58
2023-03-22T09:28:02.215Z,13.87
2023-03-22T09:30:28.856Z,13.94
2023-03-22T09:32:55.596Z,14.00
2023-03-22T09:35:22.774Z,14.09
2023-03-22T09:37:49.550Z,14.17
2023-03-22T09:40:17.791Z,14.21
2023-03-22T09:42:48.077Z,14.25
2023-03-22T09:45:19.336Z,14.31
2023-03-22T09:47:48.924Z,14.31
2023-03-22T09:50:20.919Z,14.31
2023-03-22T09:52:48.026Z,14.26
2023-03-22T09:55:41.630Z,14.27
2023-03-22T09:58:37.535Z,14.33
2023-03-22T10:01:21.121Z,14.41
2023-03-22T10:04:22.070Z,14.48
2023-03-22T10:06:59.829Z,14.53
2023-03-22T10:09:35.282Z,14.41
2023-03-22T10:12:30.118Z,14.38
2023-03-22T10:15:10.494Z,14.38
2023-03-22T10:17:39.797Z,14.37
2023-03-22T10:20:28.704Z,14.48
2023-03-22T10:22:58.408Z,14.53
2023-03-22T10:25:37.206Z,14.58
2023-03-22T10:28:16.352Z,14.73
2023-03-22T10:30:45.270Z,14.79
2023-03-22T10:33:19.414Z,14.87
2023-03-22T10:35:47.055Z,14.90
2023-03-22T10:38:22.685Z,14.92
2023-03-22T10:40:50.988Z,14.92
2023-03-22T10:43:23.686Z,15.02
2023-03-22T10:45:53.296Z,15.07
2023-03-22T10:48:33.601Z,15.20
2023-03-22T10:51:01.294Z,15.25
2023-03-22T10:53:45.706Z,15.25
2023-03-22T10:56:15.807Z,15.23
2023-03-22T10:58:42.648Z,15.40
2023-03-22T11:01:12.714Z,15.45
2023-03-22T11:03:49.526Z,15.50
2023-03-22T11:06:23.438Z,15.50
2023-03-22T11:08:56.817Z,15.55
2023-03-22T11:11:45.225Z,15.55
2023-03-22T11:14:20.392Z,15.64
2023-03-22T11:17:14.126Z,15.77
2023-03-22T11:19:50.340Z,15.85
2023-03-22T11:22:37.731Z,15.71
2023-03-22T11:25:13.597Z,15.69
2023-03-22T11:27:51.181Z,15.69
2023-03-22T11:30:22.914Z,16.05
2023-03-22T11:32:59.210Z,16.48
2023-03-22T11:35:29.276Z,16.34
2023-03-22T11:37:56.602Z,16.29
2023-03-22T11:40:26.384Z,16.22
2023-03-22T11:42:56.476Z,16.31
2023-03-22T11:45:29.652Z,16.23
2023-03-22T11:48:06.596Z,16.18
2023-03-22T11:50:38.255Z,16.18
2023-03-22T11:53:12.219Z,16.21
2023-03-22T11:55:39.365Z,16.20
2023-03-22T11:58:06.761Z,16.07
2023-03-22T12:00:38.626Z,16.16
2023-03-22T12:03:13.844Z,16.25
2023-03-22T12:05:44.490Z,16.25
2023-03-22T12:08:33.419Z,16.34
2023-03-22T12:11:11.416Z,16.39
2023-03-22T12:13:54.496Z,16.59
2023-03-22T12:16:38.942Z,16.68
2023-03-22T12:19:41.583Z,16.71
2023-03-22T12:22:16.050Z,16.77
2023-03-22T12:24:43.122Z,16.77
2023-03-22T12:27:31.322Z,17.02
2023-03-22T12:30:04.101Z,17.23
2023-03-22T12:32:36.130Z,17.27
2023-03-22T12:35:16.731Z,17.16
2023-03-22T12:37:48.426Z,17.15
2023-03-22T12:40:27.337Z,17.21
2023-03-22T12:43:18.798Z,17.19
2023-03-22T12:45:49.972Z,17.06
2023-03-22T12:48:30.849Z,17.01
2023-03-22T12:51:05.545Z,17.06
2023-03-22T12:53:42.347Z,17.04
2023-03-22T12:56:16.355Z,17.11
2023-03-22T12:58:48.945Z,17.30
2023-03-22T13:01:56.791Z,17.27
2023-03-22T13:04:51.246Z,17.28
2023-03-22T13:07:52.089Z,17.45
2023-03-22T13:11:02.041Z,17.48
2023-03-22T13:13:42.169Z,17.40
2023-03-22T13:16:22.701Z,17.45
2023-03-22T13:19:17.324Z,17.45
2023-03-22T13:21:44.090Z,17.48
2023-03-22T13:24:15.362Z,17.51
2023-03-22T13:26:51.598Z,17.61
2023-03-22T13:29:36.215Z,17.50
2023-03-22T13:32:33.601Z,17.36
2023-03-22T13:35:00.867Z,17.29
2023-03-22T13:37:37.178Z,17.18
2023-03-22T13:40:22.117Z,17.07
2023-03-22T13:42:50.677Z,16.97
2023-03-22T13:45:33.331Z,16.94
2023-03-22T13:48:12.326Z,17.13
2023-03-22T13:50:40.038Z,17.13
2023-03-22T13:53:21.527Z,17.04
2023-03-22T13:56:07.353Z,17.05
2023-03-22T13:58:41.241Z,17.05
2023-03-22T14:01:16.584Z,17.04
2023-03-22T14:03:45.713Z,17.04
2023-03-22T14:06:31.805Z,17.09
2023-03-22T14:09:02.561Z,17.04
2023-03-22T14:11:43.882Z,17.02
2023-03-22T14:14:19.305Z,16.96
2023-03-22T14:16:51.557Z,17.25
2023-03-22T14:19:25.717Z,17.21
